Latest Weather Observations for Yeppoon

IDQ60801

Issued at 9:32 am EST Saturday 23 May 2015 (issued every 30 minutes, with the page automatically refreshed every 10 minutes)

About weather observations | Map of weather stations | Latest weather observations for QLD | Other Formats
Station Details ID: 033294 Name: YEPPOON THE ESPLANADE Lat: -23.14 Lon: 150.75 Height: 5.5 m
Data from the previous 72 hours. | See also: Recent months at Yeppoon
Date/Time
EST
Temp
°C
App
Temp
°C
Dew
Point
Rel
Hum
%
Delta-T
°C
Wind Press
QNH
hPa
Press
MSL
hPa
Rain
since 9 am
mm
Dir
 
Spd
km/h
Gust
km/h
Spd
kts
Gust
kts
23/09:30am 18.1 14.4 9.3 56 4.6 SE 19 28 10 15 1022.5 1022.5 0.0
23/09:00am 17.5 14.9 9.4 59 4.2 SSE 13 19 7 10 1022.1 1022.1 0.0
23/08:30am 16.0 13.4 9.2 64 3.5 S 13 20 7 11 1021.9 1021.9 0.0
23/08:00am 13.2 11.6 8.8 74 2.2 WSW 7 13 4 7 1021.6 1021.6 0.0
23/07:30am 11.7 8.7 7.8 77 1.9 WSW 13 17 7 9 1021.3 1021.3 0.0
23/07:00am 10.7 9.1 8.2 84 1.2 WSW 6 11 3 6 1021.0 1021.0 0.0
23/06:30am 10.2 7.2 7.5 83 1.3 WSW 13 17 7 9 1020.7 1020.7 0.0
23/06:00am 10.4 7.3 7.2 80 1.5 W 13 17 7 9 1020.2 1020.2 0.0
23/05:30am 11.0 7.9 7.2 77 1.8 W 13 17 7 9 1020.0 1020.0 0.0
23/05:00am 11.5 8.9 7.8 78 1.8 WSW 11 13 6 7 1019.8 1019.8 0.0
23/04:30am 11.6 8.5 7.4 75 2.0 W 13 15 7 8 1019.7 1019.7 0.0
23/04:00am 12.4 9.8 7.7 73 2.3 W 11 15 6 8 1019.8 1019.8 0.0
23/03:30am 13.0 10.3 7.2 68 2.8 SW 11 17 6 9 1019.6 1019.6 0.0
23/03:00am 12.6 10.2 7.2 69 2.6 WSW 9 13 5 7 1020.2 1020.2 0.0
23/02:30am 12.5 10.1 7.1 69 2.6 WSW 9 15 5 8 1020.1 1020.1 0.0
23/02:00am 13.3 10.5 6.9 65 3.1 SW 11 15 6 8 1020.4 1020.4 0.0
23/01:30am 13.5 11.2 7.3 66 3.0 WSW 9 11 5 6 1020.7 1020.7 0.0
23/01:00am 13.9 11.1 7.1 63 3.3 SSW 11 15 6 8 1020.9 1020.9 0.0
23/12:30am 14.2 9.6 6.5 60 3.7 SSW 20 28 11 15 1020.8 1020.8 0.0
23/12:00am 14.4 10.4 6.5 59 3.8 SSW 17 28 9 15 1021.2 1021.2 0.0
 
Date/Time
EST
Temp
°C
App
Temp
°C
Dew
Point
Rel
Hum
%
Delta-T
°C
Wind Press
QNH
hPa
Press
MSL
hPa
Rain
since 9 am
mm
Dir
 
Spd
km/h
Gust
km/h
Spd
kts
Gust
kts
22/11:30pm 14.6 10.3 6.8 59 3.8 SSW 19 28 10 15 1021.5 1021.5 0.0
22/11:00pm 14.9 10.8 6.4 57 4.1 SSW 17 33 9 18 1021.8 1021.8 0.0
22/10:30pm 15.1 10.7 6.6 57 4.1 SSW 19 28 10 15 1021.9 1021.9 0.0
22/10:00pm 15.3 12.1 6.9 57 4.1 SSW 13 22 7 12 1021.8 1021.8 0.0
22/09:30pm 15.7 11.7 6.7 55 4.4 SSW 17 24 9 13 1021.6 1021.6 0.0
22/09:00pm 15.5 12.2 6.2 54 4.5 SW 13 20 7 11 1021.3 1021.3 0.0
22/08:30pm 15.3 12.9 6.9 57 4.1 SSW 9 13 5 7 1021.0 1021.0 0.0
22/08:00pm 15.9 13.3 5.9 51 4.8 SW 9 11 5 6 1020.8 1020.8 0.0
22/07:30pm 16.6 13.9 5.8 49 5.2 SSW 9 13 5 7 1020.5 1020.5 0.0
22/07:00pm 17.8 14.0 3.9 39 6.5 SSW 13 17 7 9 1020.0 1020.0 0.0
22/06:30pm 17.1 13.9 6.8 50 5.1 SSW 13 15 7 8 1019.4 1019.4 0.0
22/06:00pm 18.6 15.7 4.9 40 6.6 SSW 9 13 5 7 1019.2 1019.2 0.0
22/05:30pm 19.3 15.7 4.8 38 7.0 SSW 13 17 7 9 1018.4 1018.4 0.0
22/05:00pm 21.0 16.8 3.9 32 8.2 SSW 15 20 8 11 1017.9 1017.9 0.0
22/04:30pm 22.1 16.9 3.3 29 9.0 SSW 20 30 11 16 1017.4 1017.4 0.0
22/04:00pm 22.9 19.1 5.6 32 8.7 SSW 15 26 8 14 1017.2 1017.2 0.0
22/03:30pm 23.2 18.4 5.5 31 8.9 WSW 20 28 11 15 1016.9 1016.9 0.0
22/03:00pm 23.4 18.9 6.1 32 8.8 SW 19 30 10 16 1016.5 1016.5 0.0
22/02:30pm 23.6 19.0 6.7 33 8.7 SW 20 33 11 18 1016.6 1016.6 0.0
22/02:00pm 23.8 20.4 7.6 35 8.5 SSW 15 26 8 14 1016.8 1016.8 0.0
22/01:30pm 23.6 19.4 7.3 35 8.5 SSW 19 28 10 15 1017.1 1017.1 0.0
22/01:00pm 23.8 19.8 8.1 36 8.3 SSW 19 28 10 15 1017.4 1017.4 0.0
22/12:30pm 23.3 19.1 7.3 35 8.3 SW 19 30 10 16 1017.7 1017.7 0.0
22/12:00pm 23.0 18.8 8.2 38 7.8 SW 20 33 11 18 1018.1 1018.1 0.0
22/11:30am 23.2 19.8 10.5 44 7.0 SW 19 28 10 15 1018.3 1018.3 0.0
22/11:00am 22.5 21.0 12.0 51 5.9 SW 11 19 6 10 1018.8 1018.8 0.0
22/10:30am 22.5 20.9 12.9 54 5.5 SSW 13 20 7 11 1019.1 1019.1 0.0
22/10:00am 21.7 20.1 12.7 56 5.1 SSW 13 20 7 11 1019.3 1019.3 0.0
22/09:30am 20.9 18.5 12.6 59 4.7 S 17 28 9 15 1019.4 1019.4 0.0
22/09:00am 20.2 17.4 12.7 62 4.2 S 19 28 10 15 1019.2 1019.2 0.0
22/08:30am 19.8 17.6 13.3 66 3.7 SSW 17 24 9 13 1018.9 1018.9 0.0
22/08:00am 19.5 18.4 14.3 72 3.0 WSW 13 17 7 9 1018.8 1018.8 0.0
22/07:30am 19.0 18.1 14.9 77 2.4 WSW 13 15 7 8 1018.5 1018.5 0.0
22/07:00am 19.0 18.6 15.2 78 2.2 SW 11 17 6 9 1018.0 1018.0 0.0
22/06:30am 18.9 18.6 15.5 80 2.0 WSW 11 15 6 8 1017.8 1017.8 0.0
22/06:00am 18.9 19.0 15.5 80 2.0 W 9 13 5 7 1017.5 1017.5 0.0
22/05:30am 19.2 19.7 15.5 79 2.2 WSW 7 11 4 6 1016.9 1016.9 0.0
22/05:00am 19.3 19.0 15.4 78 2.3 WSW 11 13 6 7 1016.5 1016.5 0.0
22/04:30am 19.4 19.4 15.1 76 2.5 WSW 9 15 5 8 1016.2 1016.2 0.0
22/04:00am 19.1 18.4 15.5 79 2.1 WSW 13 19 7 10 1016.2 1016.2 0.0
22/03:30am 18.8 19.1 16.1 84 1.6 W 9 11 5 6 1016.2 1016.2 0.0
22/03:00am 18.7 18.2 16.0 84 1.6 WSW 13 17 7 9 1016.3 1016.3 0.0
22/02:30am 19.0 18.1 15.8 82 1.9 WSW 15 20 8 11 1016.4 1016.4 0.0
22/02:00am 19.0 19.2 16.7 86 1.4 WSW 11 15 6 8 1016.5 1016.5 0.0
22/01:30am 19.0 18.8 16.8 87 1.3 SW 13 20 7 11 1016.7 1016.7 0.0
22/01:00am 19.2 19.0 17.6 90 1.0 W 15 20 8 11 1016.9 1016.9 0.0
22/12:30am 20.4 21.0 18.5 89 1.2 W 13 17 7 9 1017.2 1017.2 0.0
22/12:00am 21.2 21.2 19.0 87 1.4 WSW 17 24 9 13 1017.5 1017.5 0.0
 
Date/Time
EST
Temp
°C
App
Temp
°C
Dew
Point
Rel
Hum
%
Delta-T
°C
Wind Press
QNH
hPa
Press
MSL
hPa
Rain
since 9 am
mm
Dir
 
Spd
km/h
Gust
km/h
Spd
kts
Gust
kts
21/11:30pm 22.4 23.7 20.1 87 1.5 W 13 19 7 10 1017.5 1017.5 0.0
21/11:00pm 22.7 24.9 20.5 87 1.4 WSW 9 13 5 7 1017.4 1017.4 0.0
21/10:30pm 23.1 25.4 20.6 86 1.6 NNW 9 17 5 9 1017.0 1017.0 0.0
21/10:00pm 23.0 25.3 20.7 87 1.5 NNW 9 15 5 8 1017.2 1017.2 0.0
21/09:30pm 22.9 24.3 21.1 89 1.2 N 15 20 8 11 1017.1 1017.1 0.0
21/09:00pm 22.7 23.7 21.0 90 1.1 N 17 22 9 12 1017.0 1017.0 0.0
21/08:30pm 22.9 24.1 21.4 91 1.0 N 17 19 9 10 1017.1 1017.1 0.0
21/08:00pm 23.1 25.0 22.0 93 0.7 N 15 19 8 10 1017.0 1017.0 0.0
21/07:30pm 22.9 23.9 21.8 93 0.7 N 19 20 10 11 1016.8 1016.8 0.0
21/07:00pm 23.0 24.2 22.2 95 0.5 N 19 22 10 12 1016.3 1016.3 0.0
21/06:30pm 23.0 24.2 22.2 95 0.5 N 19 20 10 11 1016.2 1016.2 0.0
21/06:00pm 23.0 25.3 22.1 95 0.6 NNE 13 17 7 9 1016.1 1016.1 0.0
21/05:30pm 23.0 25.2 21.8 93 0.8 NNE 13 15 7 8 1016.0 1016.0 0.0
21/05:00pm 23.1 25.6 21.7 92 0.9 NNE 11 13 6 7 1015.7 1015.7 0.0
21/04:30pm 23.3 25.0 21.6 90 1.1 NNE 15 17 8 9 1015.7 1015.7 0.0
21/04:00pm 23.4 24.6 21.4 88 1.3 NNE 17 20 9 11 1015.5 1015.5 0.0
21/03:30pm 23.6 24.8 21.5 88 1.4 NNE 17 20 9 11 1015.4 1015.4 0.0
21/03:00pm 23.7 25.0 21.6 88 1.4 NE 17 19 9 10 1015.5 1015.5 0.0
21/02:30pm 23.6 24.8 21.5 88 1.4 ENE 17 19 9 10 1015.6 1015.6 0.0
21/02:00pm 23.7 25.2 21.3 86 1.6 ENE 15 19 8 10 1015.7 1015.7 0.0
21/01:30pm 23.7 25.1 21.1 85 1.7 ENE 15 17 8 9 1016.1 1016.1 0.0
21/01:00pm 23.5 25.2 20.9 85 1.7 ENE 13 15 7 8 1016.5 1016.5 0.0
21/12:30pm 23.3 24.9 20.7 85 1.7 ENE 13 13 7 7 1017.1 1017.1 0.0
21/12:00pm 23.0 24.6 20.7 87 1.5 ENE 13 15 7 8 1017.8 1017.8 0.0
21/11:30am 23.0 24.5 20.5 86 1.6 ENE 13 15 7 8 1018.1 1018.1 0.0
21/11:00am 23.2 24.7 20.6 85 1.7 ENE 13 15 7 8 1018.5 1018.5 0.0
21/10:30am 23.1 25.4 20.6 86 1.6 ENE 9 13 5 7 1019.0 1019.0 0.0
21/10:00am 22.9 25.6 20.7 87 1.4 ENE 7 7 4 4 1019.5 1019.5 0.0
21/09:30am 21.9 23.4 20.5 92 0.9 E 13 15 7 8 1019.6 1019.6 0.0
21/09:00am 21.6 23.2 20.8 95 0.5 E 13 15 7 8 1019.7 1019.7 0.0
21/08:30am 21.5 24.6 21.0 97 0.3 SSE 6 9 3 5 1019.6 1019.6 0.0
21/08:00am 21.3 24.2 21.0 98 0.2 SSE 7 9 4 5 1019.2 1019.2 0.0
21/07:30am 21.1 23.9 20.9 99 0.1 E 7 9 4 5 1018.9 1018.9 0.0
21/07:00am 21.0 24.0 20.8 99 0.1 S 6 6 3 3 1018.8 1018.8 0.0
21/06:30am 20.9 24.2 20.7 99 0.1 SW 4 7 2 4 1018.3 1018.3 0.0
21/06:00am 20.9 25.0 20.7 99 0.1 CALM 0 0 0 0 1018.1 1018.1 0.0
21/05:30am 20.9 24.9 20.6 98 0.2 CALM 0 0 0 0 1017.8 1017.8 0.0
21/05:00am 20.9 24.9 20.6 98 0.2 CALM 0 6 0 3 1017.8 1017.8 0.0
21/04:30am 20.9 23.8 20.6 98 0.2 S 6 7 3 4 1017.7 1017.7 0.0
21/04:00am 20.8 23.7 20.6 99 0.1 SSW 6 9 3 5 1017.6 1017.6 0.0
21/03:30am 20.8 23.6 20.5 98 0.2 SSW 6 9 3 5 1017.5 1017.5 0.0
21/03:00am 20.8 23.6 20.5 98 0.2 SW 6 9 3 5 1017.8 1017.8 0.0
21/02:30am 20.6 23.0 20.1 97 0.3 SW 7 9 4 5 1018.0 1018.0 0.0
21/02:00am 20.8 23.3 20.2 96 0.4 SSW 7 9 4 5 1018.2 1018.2 0.0
21/01:30am 20.8 22.9 20.2 96 0.4 SW 9 9 5 5 1018.3 1018.3 0.0
21/01:00am 20.6 23.0 20.0 96 0.4 WSW 7 9 4 5 1018.6 1018.6 0.0
21/12:30am 20.6 23.2 20.0 96 0.4 SW 6 7 3 4 1018.7 1018.7 0.0
21/12:00am 20.2 22.6 19.6 96 0.4 WSW 6 7 3 4 1018.8 1018.8 0.0
 
Date/Time
EST
Temp
°C
App
Temp
°C
Dew
Point
Rel
Hum
%
Delta-T
°C
Wind Press
QNH
hPa
Press
MSL
hPa
Rain
since 9 am
mm
Dir
 
Spd
km/h
Gust
km/h
Spd
kts
Gust
kts
20/11:30pm 20.2 22.0 19.6 96 0.4 W 9 9 5 5 1019.2 1019.2 0.0
20/11:00pm 19.8 21.5 19.3 97 0.3 WSW 9 9 5 5 1019.4 1019.4 0.0
20/10:30pm 19.6 21.5 19.0 96 0.4 WSW 7 7 4 4 1019.4 1019.4 0.0
20/10:00pm 19.9 22.1 19.3 96 0.4 SW 6 7 3 4 1019.5 1019.5 0.0
20/09:30pm 20.1 22.4 19.5 96 0.4 SSW 6 7 3 4 1019.3 1019.3 0.0
20/09:00pm 20.1 22.4 19.5 96 0.4 SSW 6 6 3 3 1019.3 1019.3 0.0
20/08:30pm 20.3 22.6 19.5 95 0.5 SSW 6 7 3 4 1019.3 1019.3 0.0
20/08:00pm 21.0 23.4 19.7 92 0.8 ESE 6 7 3 4 1019.0 1019.0 0.0
20/07:30pm 21.8 24.5 20.7 93 0.7 E 7 11 4 6 1018.8 1018.8 0.0
20/07:00pm 22.1 24.5 20.9 93 0.8 E 9 11 5 6 1018.5 1018.5 0.0
20/06:30pm 22.2 23.8 20.8 92 0.9 ENE 13 17 7 9 1018.3 1018.3 0.0
20/06:00pm 22.2 23.9 21.0 93 0.8 ENE 13 15 7 8 1018.0 1018.0 0.0
20/05:30pm 22.3 24.0 20.9 92 0.9 ENE 13 17 7 9 1017.8 1017.8 0.0
20/05:00pm 22.5 24.5 20.8 90 1.1 ENE 11 15 6 8 1017.6 1017.6 0.0
20/04:30pm 22.8 24.3 20.5 87 1.5 ENE 13 15 7 8 1017.2 1017.2 0.0
20/04:00pm 22.8 24.3 20.5 87 1.5 E 13 17 7 9 1017.0 1017.0 0.0
20/03:30pm 23.1 24.5 21.0 88 1.4 E 15 17 8 9 1017.0 1017.0 0.0
20/03:00pm 23.5 24.6 20.4 83 2.0 E 15 17 8 9 1017.0 1017.0 0.0
20/02:30pm 23.7 24.8 20.5 82 2.1 E 15 17 8 9 1017.2 1017.2 0.0
20/02:00pm 23.6 24.3 20.4 82 2.1 E 17 20 9 11 1017.4 1017.4 0.0
20/01:30pm 23.7 24.2 20.0 80 2.4 E 17 20 9 11 1017.5 1017.5 0.0
20/01:00pm 23.7 24.7 20.3 81 2.2 E 15 19 8 10 1017.8 1017.8 0.0
20/12:30pm 23.5 24.3 19.8 80 2.4 E 15 19 8 10 1018.2 1018.2 0.0
20/12:00pm 23.4 23.8 19.8 80 2.3 E 17 19 9 10 1018.7 1018.7 0.0
20/11:30am 23.4 24.1 19.7 80 2.4 E 15 19 8 10 1019.1 1019.1 0.0
20/11:00am 23.3 23.9 19.5 79 2.4 E 15 17 8 9 1019.3 1019.3 0.0
20/10:30am 23.1 23.3 19.3 79 2.4 E 17 20 9 11 1019.7 1019.7 0.0
20/10:00am 23.2 23.8 19.4 79 2.4 E 15 17 8 9 1020.0 1020.0 0.0

Other Formats:

Comma delimited format used in spreadsheet applications
http://www.bom.gov.au/fwo/IDQ60801/IDQ60801.94373.axf

JavaScript Object Notation format (JSON) in row-major order
http://www.bom.gov.au/fwo/IDQ60801/IDQ60801.94373.json